createdAt,value
2022-10-05T00:02:34.354Z,65.66
2022-10-05T00:05:36.737Z,66.01
2022-10-05T00:08:39.413Z,66.27
2022-10-05T00:11:41.869Z,66.42
2022-10-05T00:14:45.915Z,66.09
2022-10-05T00:17:48.486Z,66.74
2022-10-05T00:20:50.948Z,66.41
2022-10-05T00:23:56.314Z,65.77
2022-10-05T00:27:21.125Z,66.21
2022-10-05T00:30:25.464Z,66.29
2022-10-05T00:33:27.951Z,65.95
2022-10-05T00:36:30.304Z,66.05
2022-10-05T00:39:33.574Z,66.13
2022-10-05T00:43:25.850Z,66.20
2022-10-05T00:46:40.166Z,66.61
2022-10-05T00:50:00.732Z,66.23
2022-10-05T00:53:24.899Z,65.73
2022-10-05T00:56:46.643Z,65.53
2022-10-05T00:59:52.081Z,66.15
2022-10-05T01:03:15.333Z,66.55
2022-10-05T01:06:39.288Z,66.45
2022-10-05T01:09:59.054Z,66.13
2022-10-05T01:13:26.450Z,66.48
2022-10-05T01:16:34.476Z,66.30
2022-10-05T01:19:42.859Z,66.54
2022-10-05T01:23:22.543Z,66.95
2022-10-05T01:26:56.972Z,66.32
2022-10-05T01:30:16.244Z,66.48
2022-10-05T01:33:52.837Z,67.03
2022-10-05T01:36:58.075Z,65.51
2022-10-05T01:40:08.494Z,66.10
2022-10-05T01:43:33.005Z,66.47
2022-10-05T01:46:52.605Z,66.77
2022-10-05T01:50:00.773Z,66.71
2022-10-05T01:53:30.822Z,67.01
2022-10-05T01:56:43.576Z,67.27
2022-10-05T02:00:07.826Z,66.90
2022-10-05T02:03:24.828Z,66.47
2022-10-05T02:06:31.707Z,66.19
2022-10-05T02:09:38.008Z,66.18
2022-10-05T02:12:41.127Z,65.78
2022-10-05T02:15:57.023Z,66.06
2022-10-05T02:19:00.698Z,66.17
2022-10-05T02:22:06.772Z,66.02
2022-10-05T02:25:18.809Z,66.46
2022-10-05T02:28:33.886Z,66.98
2022-10-05T02:31:58.630Z,66.79
2022-10-05T02:35:09.625Z,65.91
2022-10-05T02:38:17.349Z,65.92
2022-10-05T02:41:32.746Z,65.61
2022-10-05T02:44:53.739Z,66.10
2022-10-05T02:48:19.274Z,65.88
2022-10-05T02:51:32.322Z,66.52
2022-10-05T02:54:47.417Z,66.26
2022-10-05T02:58:02.296Z,66.97
2022-10-05T03:01:07.615Z,67.08
2022-10-05T03:04:21.683Z,66.57
2022-10-05T03:07:29.761Z,66.06
2022-10-05T03:10:45.663Z,65.96
2022-10-05T03:13:50.889Z,65.91
2022-10-05T03:17:15.153Z,65.91
2022-10-05T03:20:24.302Z,65.79
2022-10-05T03:23:54.487Z,66.34
2022-10-05T03:27:09.294Z,65.91
2022-10-05T03:30:23.459Z,65.49
2022-10-05T03:33:40.777Z,65.77
2022-10-05T03:36:52.486Z,66.25
2022-10-05T03:40:01.000Z,66.43
2022-10-05T03:43:33.627Z,65.82
2022-10-05T03:47:04.689Z,65.64
2022-10-05T03:50:46.433Z,65.38
2022-10-05T03:53:53.317Z,65.62
2022-10-05T03:56:58.174Z,65.59
2022-10-05T04:00:05.661Z,65.00
2022-10-05T04:03:27.485Z,65.36
2022-10-05T04:06:44.669Z,65.96
2022-10-05T04:09:48.951Z,66.62
2022-10-05T04:12:58.701Z,66.23
2022-10-05T04:16:06.639Z,66.38
2022-10-05T04:19:21.342Z,67.19
2022-10-05T04:22:29.905Z,66.73
2022-10-05T04:25:46.541Z,66.99
2022-10-05T04:28:52.665Z,66.62
2022-10-05T04:32:19.913Z,66.91
2022-10-05T04:35:40.787Z,66.76
2022-10-05T04:39:00.387Z,66.60
2022-10-05T04:42:11.530Z,66.95
2022-10-05T04:45:37.848Z,66.45
2022-10-05T04:48:49.945Z,67.17
2022-10-05T04:52:09.801Z,67.32
2022-10-05T04:55:35.780Z,67.07
2022-10-05T04:59:17.753Z,67.02
2022-10-05T05:02:32.422Z,67.09
2022-10-05T05:05:53.031Z,67.00
2022-10-05T05:09:29.037Z,67.22
2022-10-05T05:12:37.600Z,66.07
2022-10-05T05:15:58.747Z,65.73
2022-10-05T05:19:35.669Z,65.91
2022-10-05T05:22:45.811Z,66.84
2022-10-05T05:25:54.435Z,66.09
2022-10-05T05:29:20.980Z,66.10
2022-10-05T05:32:49.572Z,65.93
2022-10-05T05:36:23.260Z,65.83
2022-10-05T05:39:51.580Z,66.32
2022-10-05T05:43:06.775Z,66.37
2022-10-05T05:46:15.934Z,66.51
2022-10-05T05:49:25.271Z,65.80
2022-10-05T05:52:41.703Z,66.46
2022-10-05T05:55:56.499Z,66.70
2022-10-05T05:59:22.757Z,66.58
2022-10-05T06:02:30.508Z,66.25
2022-10-05T06:05:49.914Z,66.15
2022-10-05T06:09:03.238Z,66.68
2022-10-05T06:12:28.343Z,66.58
2022-10-05T06:15:42.396Z,67.52
2022-10-05T06:18:48.998Z,65.67
2022-10-05T06:21:56.590Z,65.99
2022-10-05T06:25:26.751Z,66.74
2022-10-05T06:28:30.604Z,66.06
2022-10-05T06:31:36.034Z,65.98
2022-10-05T06:35:01.698Z,66.05
2022-10-05T06:38:48.434Z,65.90
2022-10-05T06:41:59.952Z,64.26
2022-10-05T06:45:42.585Z,63.09
2022-10-05T06:49:29.951Z,62.62
2022-10-05T06:53:32.239Z,62.55
2022-10-05T06:57:07.940Z,61.98
2022-10-05T07:00:20.381Z,62.04
2022-10-05T07:03:51.708Z,60.59
2022-10-05T07:07:26.899Z,59.53
2022-10-05T07:10:33.952Z,59.46
2022-10-05T07:14:03.600Z,58.71
2022-10-05T07:17:34.850Z,57.34
2022-10-05T07:21:20.591Z,56.98
2022-10-05T07:24:32.644Z,54.90
2022-10-05T07:27:49.474Z,53.90
2022-10-05T07:30:57.135Z,52.88
2022-10-05T07:34:17.841Z,51.77
2022-10-05T07:37:54.585Z,51.68
2022-10-05T07:41:07.488Z,50.45
2022-10-05T07:44:27.233Z,48.08
2022-10-05T07:47:51.810Z,48.89
2022-10-05T07:51:06.781Z,49.78
2022-10-05T07:54:31.101Z,48.66
2022-10-05T07:57:39.715Z,48.58
2022-10-05T08:00:54.831Z,48.46
2022-10-05T08:04:03.522Z,47.51
2022-10-05T08:07:07.579Z,51.61
2022-10-05T08:10:42.244Z,47.52
2022-10-05T08:13:52.023Z,46.98
2022-10-05T08:16:58.121Z,47.59
2022-10-05T08:20:06.182Z,47.32
2022-10-05T08:23:21.598Z,47.61
2022-10-05T08:26:38.919Z,47.68
2022-10-05T08:29:47.774Z,46.76
2022-10-05T08:32:57.497Z,46.72
2022-10-05T08:36:10.950Z,48.24
2022-10-05T08:39:17.414Z,48.23
2022-10-05T08:42:57.541Z,46.41
2022-10-05T08:46:08.448Z,45.68
2022-10-05T08:49:56.959Z,45.52
2022-10-05T08:53:12.418Z,45.71
2022-10-05T08:56:23.117Z,44.97
2022-10-05T08:59:56.591Z,44.17
2022-10-05T09:03:16.909Z,45.25
2022-10-05T09:06:31.653Z,44.15
2022-10-05T09:09:59.487Z,44.28
2022-10-05T09:13:22.758Z,43.14
2022-10-05T09:16:58.796Z,43.37
2022-10-05T09:20:11.240Z,43.55
2022-10-05T09:23:21.730Z,43.24
2022-10-05T09:26:26.889Z,43.61
2022-10-05T09:29:50.569Z,42.88
2022-10-05T09:33:08.477Z,43.61
2022-10-05T09:36:13.698Z,43.78
2022-10-05T09:40:01.486Z,44.11
2022-10-05T09:43:23.188Z,43.47
2022-10-05T09:47:04.579Z,42.87
2022-10-05T09:50:19.183Z,43.86
2022-10-05T09:53:38.580Z,42.47
2022-10-05T09:57:00.328Z,44.05
2022-10-05T10:00:30.583Z,45.29
2022-10-05T10:03:45.292Z,44.87
2022-10-05T10:06:56.449Z,45.78
2022-10-05T10:10:17.386Z,45.79
2022-10-05T10:13:22.498Z,46.63
2022-10-05T10:16:32.818Z,45.30
2022-10-05T10:19:44.035Z,44.27
2022-10-05T10:23:08.128Z,43.76
2022-10-05T10:26:55.994Z,42.50
2022-10-05T10:30:01.095Z,44.04
2022-10-05T10:33:32.961Z,44.67
2022-10-05T10:36:35.136Z,46.12
2022-10-05T10:40:20.355Z,44.85
2022-10-05T10:43:54.091Z,45.21
2022-10-05T10:47:11.230Z,45.31
2022-10-05T10:50:24.824Z,46.34
2022-10-05T10:53:46.478Z,46.41
2022-10-05T10:57:06.673Z,45.66
2022-10-05T11:00:30.148Z,44.99
2022-10-05T11:04:13.656Z,45.44
2022-10-05T11:07:34.282Z,44.95
2022-10-05T11:10:58.928Z,44.32
2022-10-05T11:14:03.800Z,43.68
2022-10-05T11:17:15.784Z,43.45
2022-10-05T11:20:48.437Z,44.19
2022-10-05T11:24:29.517Z,44.67
2022-10-05T11:27:42.627Z,44.83
2022-10-05T11:31:09.523Z,45.51
2022-10-05T11:34:41.054Z,45.07
2022-10-05T11:38:20.778Z,46.15
2022-10-05T11:41:50.739Z,45.77
2022-10-05T11:45:24.222Z,44.95
2022-10-05T11:48:48.125Z,45.01
2022-10-05T11:52:25.328Z,45.54
2022-10-05T11:55:38.098Z,44.94
2022-10-05T11:58:49.698Z,45.33
2022-10-05T12:02:01.136Z,45.55
2022-10-05T12:05:05.468Z,44.79
2022-10-05T12:08:23.044Z,45.01
2022-10-05T12:11:47.139Z,46.67
2022-10-05T12:15:12.718Z,46.95
2022-10-05T12:18:26.901Z,46.18
2022-10-05T12:21:36.497Z,47.40
2022-10-05T12:24:38.679Z,47.02
2022-10-05T12:27:46.347Z,46.00
2022-10-05T12:30:48.842Z,46.08
2022-10-05T12:34:09.546Z,46.57
2022-10-05T12:37:32.047Z,47.15
2022-10-05T12:40:47.846Z,47.49
2022-10-05T12:44:06.969Z,46.77
2022-10-05T12:47:23.790Z,47.28
2022-10-05T12:50:35.054Z,46.19
2022-10-05T12:53:53.636Z,46.22
2022-10-05T12:57:03.144Z,45.91
2022-10-05T13:00:21.763Z,46.09
2022-10-05T13:03:38.187Z,45.78
2022-10-05T13:06:51.929Z,46.91
2022-10-05T13:10:22.891Z,47.00
2022-10-05T13:13:28.685Z,46.10
2022-10-05T13:16:55.316Z,46.17
2022-10-05T13:20:02.497Z,46.60
2022-10-05T13:23:12.418Z,46.12
2022-10-05T13:26:18.291Z,46.08
2022-10-05T13:29:42.728Z,46.10
2022-10-05T13:32:48.237Z,46.19
2022-10-05T13:35:59.016Z,46.17
2022-10-05T13:39:04.281Z,46.46
2022-10-05T13:42:10.043Z,46.83
2022-10-05T13:45:24.128Z,47.14
2022-10-05T13:48:59.645Z,47.65
2022-10-05T13:52:08.769Z,47.05
2022-10-05T13:55:31.985Z,47.37
2022-10-05T13:58:58.356Z,48.00
2022-10-05T14:02:08.047Z,48.42
2022-10-05T14:05:25.375Z,48.32
2022-10-05T14:08:35.890Z,49.54
2022-10-05T14:11:50.915Z,48.47
2022-10-05T14:14:55.254Z,47.95
2022-10-05T14:17:57.481Z,48.88
2022-10-05T14:21:03.116Z,48.05
2022-10-05T14:24:32.201Z,48.42
2022-10-05T14:27:57.575Z,49.70
2022-10-05T14:31:02.231Z,48.42
2022-10-05T14:34:29.330Z,48.46
2022-10-05T14:37:43.302Z,50.34
2022-10-05T14:40:45.558Z,48.51
2022-10-05T14:44:09.721Z,48.41
2022-10-05T14:47:22.907Z,48.81
2022-10-05T14:50:29.478Z,48.98
2022-10-05T14:53:43.784Z,47.86
2022-10-05T14:56:50.418Z,49.14
2022-10-05T15:00:04.414Z,49.08
2022-10-05T15:03:29.969Z,47.84
2022-10-05T15:06:42.202Z,48.61
2022-10-05T15:10:36.907Z,49.78
2022-10-05T15:13:42.537Z,48.38
2022-10-05T15:16:45.386Z,49.61
2022-10-05T15:20:06.397Z,49.49
2022-10-05T15:23:47.574Z,49.10
2022-10-05T15:26:52.646Z,49.75
2022-10-05T15:30:18.208Z,50.66
2022-10-05T15:33:46.386Z,49.57
2022-10-05T15:36:54.508Z,50.20
2022-10-05T15:39:59.305Z,49.83
2022-10-05T15:43:04.709Z,49.86
2022-10-05T15:46:10.585Z,50.51
2022-10-05T15:49:24.142Z,50.43
2022-10-05T15:52:57.028Z,50.71
2022-10-05T15:56:19.624Z,51.27
2022-10-05T15:59:29.187Z,52.31
2022-10-05T16:02:34.510Z,52.63
2022-10-05T16:06:07.999Z,52.66
2022-10-05T16:09:31.656Z,53.49
2022-10-05T16:12:56.368Z,53.66
2022-10-05T16:16:12.663Z,54.17
2022-10-05T16:19:51.584Z,53.83
2022-10-05T16:23:18.677Z,54.17
2022-10-05T16:26:32.726Z,54.59
2022-10-05T16:30:26.456Z,53.97
2022-10-05T16:33:47.074Z,54.72
2022-10-05T16:37:13.679Z,54.81
2022-10-05T16:40:26.534Z,54.72
2022-10-05T16:43:44.977Z,54.63
2022-10-05T16:46:57.478Z,55.79
2022-10-05T16:50:12.067Z,56.32
2022-10-05T16:53:35.783Z,55.48
2022-10-05T16:56:42.977Z,55.98
2022-10-05T17:00:08.833Z,56.17
2022-10-05T17:03:21.862Z,54.57
2022-10-05T17:06:34.597Z,55.85
2022-10-05T17:09:43.053Z,56.20
2022-10-05T17:13:13.665Z,56.30
2022-10-05T17:16:43.053Z,56.91
2022-10-05T17:19:48.389Z,56.66
2022-10-05T17:22:53.299Z,57.07
2022-10-05T17:26:16.204Z,57.46
2022-10-05T17:29:32.182Z,57.71
2022-10-05T17:32:39.562Z,57.66
2022-10-05T17:35:56.899Z,58.51
2022-10-05T17:39:13.218Z,57.49
2022-10-05T17:42:30.655Z,58.27
2022-10-05T17:45:32.830Z,58.05
2022-10-05T17:49:04.086Z,58.94
2022-10-05T17:52:43.751Z,58.52
2022-10-05T17:55:46.381Z,58.81
2022-10-05T17:58:54.559Z,58.70
2022-10-05T18:02:16.002Z,57.14
2022-10-05T18:05:27.983Z,57.19
2022-10-05T18:08:37.790Z,57.12
2022-10-05T18:11:45.168Z,56.16
2022-10-05T18:15:03.222Z,56.94
2022-10-05T18:18:35.806Z,56.96
2022-10-05T18:21:38.854Z,57.29
2022-10-05T18:25:04.051Z,56.68
2022-10-05T18:28:25.354Z,56.94
2022-10-05T18:32:06.056Z,58.20
2022-10-05T18:35:25.221Z,57.41
2022-10-05T18:38:54.525Z,57.05
2022-10-05T18:42:23.096Z,57.51
2022-10-05T18:45:46.763Z,57.14
2022-10-05T18:49:01.250Z,58.78
2022-10-05T18:52:22.039Z,58.37
2022-10-05T18:55:31.552Z,58.95
2022-10-05T18:58:35.279Z,58.76
2022-10-05T19:01:43.760Z,59.01
2022-10-05T19:05:29.300Z,59.75
2022-10-05T19:08:44.889Z,60.04
2022-10-05T19:11:57.508Z,59.47
2022-10-05T19:14:59.742Z,58.82
2022-10-05T19:18:08.177Z,59.39
2022-10-05T19:21:27.021Z,58.94
2022-10-05T19:24:55.036Z,58.28
2022-10-05T19:28:14.195Z,58.77
2022-10-05T19:31:30.725Z,59.08
2022-10-05T19:34:55.076Z,58.34
2022-10-05T19:38:26.716Z,59.29
2022-10-05T19:41:47.617Z,58.72
2022-10-05T19:44:49.938Z,59.05
2022-10-05T19:48:16.539Z,59.16
2022-10-05T19:51:28.796Z,59.49
2022-10-05T19:54:31.722Z,60.02
2022-10-05T19:57:34.640Z,59.98
2022-10-05T20:00:37.933Z,60.14
2022-10-05T20:03:41.522Z,60.10
2022-10-05T20:06:43.826Z,59.15
2022-10-05T20:09:56.737Z,59.00
2022-10-05T20:13:00.771Z,60.08
2022-10-05T20:16:35.447Z,59.79
2022-10-05T20:19:57.533Z,59.79
2022-10-05T20:23:20.768Z,59.20
2022-10-05T20:27:02.096Z,59.74
2022-10-05T20:30:05.870Z,59.43
2022-10-05T20:33:14.608Z,60.10
2022-10-05T20:36:16.970Z,60.18
2022-10-05T20:39:21.356Z,59.67
2022-10-05T20:42:23.950Z,60.25
2022-10-05T20:45:26.412Z,60.40
2022-10-05T20:48:29.047Z,61.44
2022-10-05T20:51:31.565Z,61.32
2022-10-05T20:54:33.999Z,61.38
2022-10-05T20:57:41.594Z,61.47
2022-10-05T21:01:02.243Z,62.13
2022-10-05T21:04:06.950Z,62.65
2022-10-05T21:07:09.305Z,62.68
2022-10-05T21:10:14.357Z,63.25
2022-10-05T21:13:17.737Z,62.12
2022-10-05T21:16:21.101Z,62.36
2022-10-05T21:19:23.350Z,62.44
2022-10-05T21:22:26.198Z,61.89
2022-10-05T21:25:28.622Z,61.91
2022-10-05T21:28:32.055Z,62.74
2022-10-05T21:31:34.664Z,62.24
2022-10-05T21:34:38.411Z,62.14
2022-10-05T21:37:40.783Z,63.41
2022-10-05T21:40:45.246Z,62.95
2022-10-05T21:43:47.533Z,62.52
2022-10-05T21:46:50.003Z,62.84
2022-10-05T21:49:52.297Z,63.01
2022-10-05T21:52:54.851Z,63.12
2022-10-05T21:56:00.841Z,62.29
2022-10-05T21:59:07.713Z,61.54
2022-10-05T22:02:10.048Z,62.38
2022-10-05T22:05:12.377Z,61.91
2022-10-05T22:08:29.300Z,60.92
2022-10-05T22:11:32.498Z,61.83
2022-10-05T22:14:34.787Z,62.08
2022-10-05T22:17:37.119Z,62.10
2022-10-05T22:20:39.361Z,62.64
2022-10-05T22:23:43.199Z,62.36
2022-10-05T22:26:47.283Z,63.16
2022-10-05T22:29:49.936Z,63.16
2022-10-05T22:32:52.159Z,62.34
2022-10-05T22:35:54.575Z,63.20
2022-10-05T22:38:56.824Z,62.03
2022-10-05T22:41:59.391Z,62.71
2022-10-05T22:45:01.718Z,61.81
2022-10-05T22:48:04.174Z,62.28
2022-10-05T22:51:07.194Z,61.96
2022-10-05T22:58:45.224Z,62.85
2022-10-05T23:01:47.532Z,63.20
2022-10-05T23:04:49.940Z,63.19
2022-10-05T23:07:52.853Z,63.39
2022-10-05T23:10:55.104Z,63.74
2022-10-05T23:13:57.542Z,63.32
2022-10-05T23:16:59.909Z,62.61
2022-10-05T23:20:03.310Z,63.00
2022-10-05T23:23:05.515Z,63.44
2022-10-05T23:26:09.942Z,63.01
2022-10-05T23:29:12.235Z,63.16
2022-10-05T23:32:14.497Z,62.13
2022-10-05T23:35:16.843Z,63.28
2022-10-05T23:38:19.112Z,62.93
2022-10-05T23:41:21.396Z,63.45
2022-10-05T23:44:23.727Z,63.47
2022-10-05T23:47:25.978Z,64.53
2022-10-05T23:50:28.311Z,63.24
2022-10-05T23:53:30.584Z,63.76
2022-10-05T23:56:33.293Z,63.58
2022-10-05T23:59:35.566Z,63.21
